Airfield :
LOGIN :

Register | Disclaimer

   EN    FR    IT 

 










Legend :    VFR   Marginal VFR   IFR   Intensive IFR   Very Intensive IFR
Visi :
Ceiling :
>= 8 km
>= 3000ft
5 to 8 km
1000 to 3000 ft
1500m to 5 km
500 to 1000 ft
800 to 1500m
200 to 500 ft
< 800m
< 200 ft
Symbols :   Thunderstorms  Fog  Heavy snow  Heavy precipitations  Wind > 20 kt
SIGMETs :     Misc.  Thunderstorms  Icing  Turbulence  Mountain Waves  Volcanic Ashes






- Airport Elevation : 3 ft
- IATA code : DHR


EHKD - Den Helder De Kooy

CURRENT METAR :
  • 280838Z AUTO 22004KT 9999 FEW010 SCT053 OVC060 10/09 Q1008 BLU TEMPO SCT013

EXPIRED METARs :
  • 280828Z AUTO 23004KT 9999 SCT013 FEW015CB OVC054 10/09 Q1008 GRN TEMPO SCT013
  • 280825Z AUTO 24003KT 9999 -DZ FEW014 FEW015CB OVC052 10/09 Q1007 BLU NOSIG
  • 280809Z AUTO 24003KT 9999 -RA FEW015CB SCT047 OVC053 10/09 Q1007 BLU NOSIG
  • 280757Z AUTO 26006KT 9999 FEW012 FEW015CB OVC056 10/09 Q1007 BLU BECMG SCT014
  • 280746Z AUTO 27008KT 9999 -RA FEW012 SCT014 FEW015CB BKN017 10/09 Q1007 GRN BECMG SCT014
  • 280657Z AUTO 25010KT 9999 FEW014 OVC053 11/09 Q1007 BLU NOSIG
  • 280648Z AUTO 25010KT 9999 SCT014 FEW015CB BKN017 BKN021 11/09 Q1007 GRN BECMG SCT015
  • 280609Z AUTO 21006KT 170V250 9999 BKN015 BKN018 BKN022 09/09 Q1006 WHT NOSIG

TAF TAF EHKD
Valid from the 28 at 06:00 until the 28 at 18:00 UTC


280526Z 2806/2818 16006KT 3500 -DZRA BR BKN003 OVC005
TEMPO 2806/2812 6000 NSW SCT015 BKN018
PROB40
TEMPO 2806/2812 2000 BR DZRA FEW001 BKN002 OVC004
BECMG 2812/2815 30003KT 6000 NSW SCT010 BKN015



MET'MAP, your aeronautical weather chart ! - Copyright ORBIFLY December 2007 - Disclaimer

ORBIFLY MET'MAP TEAM :

Programming & Development : Alexandra Zaïnal
Original concept : Baudouin d'Aumeries
Technical & hardware support : Manuel Goepfert
Assistance : Marc-Olivier Méhu




SOURCES & CREDITS :

   NOAA